Time;durP1;ratioP1;P1;durP2;ratioP2;P2;SDS_P1;SDS_P2;PMS_P1;PMS_P2;Temp;Humidity;BMP_temperature;BMP_pressure;BME280_temperature;BME280_humidity;BME280_pressure;Samples;Min_cycle;Max_cycle;Signal;HPM_P1;HPM_P2
2021/06/06 00:00:24;;;;;;;1.60;1.50;;;20.10;69.10;;;;;;5087873;28;20450;-77
2021/06/06 00:02:53;;;;;;;1.70;1.60;;;20.10;59.10;;;;;;5109129;28;20453;-78
2021/06/06 00:05:22;;;;;;;1.50;1.40;;;20.00;99.90;;;;;;5089755;28;20475;-76
2021/06/06 00:07:50;;;;;;;1.57;1.47;;;20.00;99.90;;;;;;5074957;28;20841;-79
2021/06/06 00:10:19;;;;;;;1.30;1.20;;;20.10;99.90;;;;;;5088739;28;20474;-78
2021/06/06 00:12:47;;;;;;;1.87;1.57;;;20.10;82.10;;;;;;5089271;28;20827;-77
2021/06/06 00:15:16;;;;;;;1.83;1.60;;;20.00;91.80;;;;;;5088485;28;21015;-77
2021/06/06 00:17:44;;;;;;;1.43;1.33;;;20.00;99.90;;;;;;5088806;28;20449;-77
2021/06/06 00:20:14;;;;;;;2.17;1.70;;;19.90;99.90;;;;;;5087241;28;20445;-77
2021/06/06 00:22:42;;;;;;;3.07;1.60;;;20.00;99.90;;;;;;5087974;28;20461;-77
2021/06/06 00:25:13;;;;;;;2.53;2.03;;;20.00;99.90;;;;;;5088625;28;20466;-76
2021/06/06 00:27:43;;;;;;;2.33;1.70;;;19.90;28.80;;;;;;5086952;28;20508;-76
2021/06/06 00:30:12;;;;;;;2.23;1.60;;;19.90;99.90;;;;;;5089265;28;20441;-75
2021/06/06 00:32:39;;;;;;;2.30;1.83;;;19.90;99.90;;;;;;5087113;28;20453;-76
2021/06/06 00:35:09;;;;;;;2.27;1.63;;;19.90;99.90;;;;;;5087464;28;20485;-78
2021/06/06 00:37:38;;;;;;;4.00;1.90;;;19.90;99.90;;;;;;5086640;28;20979;-77
2021/06/06 00:40:08;;;;;;;3.00;2.07;;;20.00;99.90;;;;;;5089183;28;20521;-77
2021/06/06 00:42:36;;;;;;;2.63;1.80;;;19.90;99.90;;;;;;5089516;28;20453;-77
2021/06/06 00:45:07;;;;;;;1.93;1.73;;;19.90;48.70;;;;;;5088453;28;21038;-78
2021/06/06 00:47:35;;;;;;;4.77;2.30;;;19.90;58.70;;;;;;5085446;28;20478;-76
2021/06/06 00:50:07;;;;;;;2.57;2.07;;;19.90;62.30;;;;;;5084408;28;20453;-77
2021/06/06 00:52:36;;;;;;;2.33;2.00;;;19.90;99.90;;;;;;5121426;27;20469;-76
2021/06/06 00:55:06;;;;;;;2.37;2.00;;;19.80;90.50;;;;;;5086670;28;21265;-79
2021/06/06 00:57:35;;;;;;;2.20;1.80;;;19.80;99.90;;;;;;5083751;28;20458;-78
2021/06/06 01:00:13;;;;;;;2.83;2.40;;;19.80;99.90;;;;;;5086292;28;20458;-78
2021/06/06 01:02:42;;;;;;;3.03;2.10;;;19.80;99.90;;;;;;5098133;28;20457;-77
2021/06/06 01:05:14;;;;;;;3.13;2.93;;;19.80;99.90;;;;;;5086748;28;21105;-78
2021/06/06 01:07:41;;;;;;;2.73;2.10;;;19.80;1.00;;;;;;5086913;28;20475;-77
2021/06/06 01:10:10;;;;;;;2.60;2.00;;;19.80;1.00;;;;;;5084301;28;20461;-77
2021/06/06 01:12:47;;;;;;;2.07;1.87;;;19.80;99.90;;;;;;5087668;28;20506;-77
2021/06/06 01:15:22;;;;;;;2.27;2.00;;;19.80;99.90;;;;;;5087841;28;20534;-77
2021/06/06 01:17:56;;;;;;;1.93;1.70;;;19.80;99.90;;;;;;5086108;28;20456;-79
2021/06/06 01:20:34;;;;;;;2.10;1.60;;;19.80;99.90;;;;;;5085888;28;20441;-77
2021/06/06 01:23:09;;;;;;;2.97;1.50;;;19.80;99.90;;;;;;5088113;28;20453;-78
2021/06/06 01:25:42;;;;;;;2.10;1.87;;;19.90;34.20;;;;;;5086488;28;20499;-77
2021/06/06 01:28:14;;;;;;;2.87;1.70;;;19.80;84.10;;;;;;5087552;28;20957;-77
2021/06/06 01:30:46;;;;;;;3.77;1.93;;;19.80;99.90;;;;;;5087443;28;20457;-77
2021/06/06 01:33:20;;;;;;;2.43;1.90;;;19.70;86.00;;;;;;5102573;28;21067;-77
2021/06/06 01:35:52;;;;;;;2.50;2.30;;;19.70;99.90;;;;;;5085810;28;21027;-78
2021/06/06 01:38:24;;;;;;;1.70;1.60;;;19.70;32.70;;;;;;5086855;28;20895;-75
2021/06/06 01:40:56;;;;;;;2.60;2.20;;;19.70;1.00;;;;;;5085667;28;20438;-77
2021/06/06 01:43:29;;;;;;;2.40;2.07;;;19.70;1.00;;;;;;5089063;28;20773;-77
2021/06/06 01:46:01;;;;;;;2.30;2.10;;;19.70;1.00;;;;;;5085199;28;20557;-77
2021/06/06 01:48:30;;;;;;;2.30;2.10;;;19.70;1.00;;;;;;5087614;28;20480;-78
2021/06/06 01:51:01;;;;;;;3.50;2.77;;;19.80;1.00;;;;;;5082627;28;21084;-76
2021/06/06 01:53:30;;;;;;;2.50;2.23;;;19.70;1.00;;;;;;5087783;28;20438;-76
2021/06/06 01:56:01;;;;;;;2.37;1.77;;;19.70;32.00;;;;;;5085481;28;20531;-77
2021/06/06 01:58:30;;;;;;;3.07;1.97;;;19.70;99.90;;;;;;5085655;28;20555;-78
2021/06/06 02:01:02;;;;;;;2.40;2.00;;;19.60;99.90;;;;;;5086630;28;20452;-78
2021/06/06 02:03:29;;;;;;;2.20;2.00;;;19.70;99.90;;;;;;5087967;28;20468;-77
2021/06/06 02:05:58;;;;;;;2.13;1.93;;;19.60;99.90;;;;;;5087247;28;20523;-77
2021/06/06 02:08:31;;;;;;;2.57;2.37;;;19.60;99.90;;;;;;5086282;28;21069;-78
2021/06/06 02:11:05;;;;;;;2.90;1.93;;;19.50;1.00;;;;;;5085019;28;20980;-78
2021/06/06 02:13:40;;;;;;;2.47;2.27;;;19.50;1.00;;;;;;5086282;28;20483;-79
2021/06/06 02:16:08;;;;;;;2.53;2.33;;;19.50;1.00;;;;;;5087869;28;20473;-78
2021/06/06 02:18:35;;;;;;;2.60;2.10;;;19.50;5.90;;;;;;5084415;28;20441;-78
2021/06/06 02:21:03;;;;;;;2.30;1.93;;;19.50;99.90;;;;;;5085899;28;20522;-77
2021/06/06 02:23:36;;;;;;;2.90;2.27;;;19.50;1.00;;;;;;5085446;28;20453;-77
2021/06/06 02:26:10;;;;;;;3.40;2.80;;;19.50;99.90;;;;;;5087749;28;20505;-77
2021/06/06 02:28:41;;;;;;;3.10;2.03;;;19.50;26.70;;;;;;5085601;28;20478;-78
2021/06/06 02:31:17;;;;;;;2.73;2.10;;;19.50;52.50;;;;;;5088366;28;20501;-78
2021/06/06 02:33:50;;;;;;;3.93;2.10;;;19.50;1.00;;;;;;5101588;28;20962;-78
2021/06/06 02:36:20;;;;;;;2.70;2.43;;;19.50;99.90;;;;;;5087140;28;20461;-77
2021/06/06 02:38:53;;;;;;;3.37;2.13;;;19.50;26.90;;;;;;5084518;28;20433;-77
2021/06/06 02:41:26;;;;;;;3.67;2.23;;;19.50;64.80;;;;;;5092086;28;20824;-76
2021/06/06 02:44:00;;;;;;;2.00;1.80;;;19.50;1.00;;;;;;5085576;28;20940;-77
2021/06/06 02:46:30;;;;;;;3.20;1.90;;;19.50;5.80;;;;;;5068755;28;20464;-76
2021/06/06 02:49:03;;;;;;;2.60;2.13;;;19.40;99.90;;;;;;5082430;28;20457;-75
2021/06/06 02:51:34;;;;;;;2.30;2.03;;;19.40;99.90;;;;;;5086480;28;21041;-76
2021/06/06 02:54:05;;;;;;;2.63;2.43;;;19.40;99.90;;;;;;5086352;28;20445;-76
2021/06/06 02:56:38;;;;;;;5.13;2.80;;;19.50;28.40;;;;;;5084668;28;20907;-76
2021/06/06 02:59:11;;;;;;;2.50;1.90;;;19.50;1.00;;;;;;5088859;28;20502;-75
2021/06/06 03:01:42;;;;;;;1.97;1.83;;;19.50;99.90;;;;;;5092469;28;20458;-77
2021/06/06 03:04:14;;;;;;;3.40;2.00;;;19.40;1.00;;;;;;5104694;28;20872;-77
2021/06/06 03:06:47;;;;;;;2.83;2.63;;;19.40;99.90;;;;;;5123359;27;20445;-77
2021/06/06 03:09:16;;;;;;;2.50;2.10;;;19.40;99.90;;;;;;5088564;28;20480;-76
2021/06/06 03:11:47;;;;;;;2.40;2.13;;;19.40;1.00;;;;;;5089063;28;20458;-77
2021/06/06 03:14:17;;;;;;;2.73;2.07;;;19.50;1.00;;;;;;5089655;28;20450;-76
2021/06/06 03:16:54;;;;;;;2.80;2.10;;;19.40;1.00;;;;;;5082524;28;20972;-77
2021/06/06 03:19:24;;;;;;;2.33;2.00;;;19.40;1.00;;;;;;5090693;28;20456;-78
2021/06/06 03:21:53;;;;;;;2.80;2.27;;;19.40;1.00;;;;;;5085969;28;21022;-78
2021/06/06 03:24:25;;;;;;;2.53;2.10;;;19.40;1.00;;;;;;5112011;27;20839;-77
2021/06/06 03:26:55;;;;;;;2.40;1.97;;;19.40;1.00;;;;;;5088065;28;20453;-78
2021/06/06 03:29:27;;;;;;;2.20;1.97;;;19.40;1.00;;;;;;5089189;28;20549;-76
2021/06/06 03:31:59;;;;;;;2.53;1.87;;;19.40;99.90;;;;;;5090990;28;20507;-75
2021/06/06 03:34:27;;;;;;;1.80;1.70;;;19.40;99.90;;;;;;5092316;28;20539;-77
2021/06/06 03:36:54;;;;;;;2.27;1.80;;;19.30;1.00;;;;;;5089387;28;20449;-79
2021/06/06 03:39:27;;;;;;;1.97;1.80;;;19.30;1.00;;;;;;5084029;28;20452;-79
2021/06/06 03:41:58;;;;;;;2.27;2.07;;;19.30;1.00;;;;;;5090752;28;20448;-76
2021/06/06 03:44:26;;;;;;;1.70;1.40;;;19.30;1.00;;;;;;5089156;28;20526;-75
2021/06/06 03:46:55;;;;;;;2.93;2.63;;;19.30;1.00;;;;;;5088587;28;20458;-77
2021/06/06 03:49:24;;;;;;;1.83;1.60;;;19.40;1.00;;;;;;5090101;28;20481;-78
2021/06/06 03:51:52;;;;;;;2.13;1.83;;;19.30;1.00;;;;;;5089973;28;20452;-77
2021/06/06 03:54:21;;;;;;;2.47;2.17;;;19.30;28.60;;;;;;5091359;28;20441;-77
2021/06/06 03:56:51;;;;;;;2.57;2.17;;;19.30;28.50;;;;;;5083094;28;21061;-77
2021/06/06 03:59:21;;;;;;;2.20;2.00;;;19.30;1.00;;;;;;5086695;28;20590;-77
2021/06/06 04:01:51;;;;;;;1.70;1.60;;;19.30;17.20;;;;;;5096564;28;20461;-77
2021/06/06 04:04:19;;;;;;;2.33;2.13;;;19.40;1.00;;;;;;5092493;28;20450;-77
2021/06/06 04:06:47;;;;;;;3.77;1.83;;;19.30;1.00;;;;;;5087129;28;20460;-78
2021/06/06 04:09:16;;;;;;;3.43;1.70;;;19.30;1.00;;;;;;5086198;28;20503;-76
2021/06/06 04:11:44;;;;;;;3.10;1.67;;;19.30;1.00;;;;;;5087897;28;20525;-77
2021/06/06 04:14:12;;;;;;;1.90;1.70;;;19.30;1.00;;;;;;5090562;28;20458;-77
2021/06/06 04:16:41;;;;;;;1.63;1.53;;;19.30;1.00;;;;;;5085432;28;20980;-77
2021/06/06 04:19:10;;;;;;;2.10;1.63;;;19.30;1.00;;;;;;5089481;28;20533;-77
2021/06/06 04:21:38;;;;;;;2.10;1.60;;;19.30;1.00;;;;;;5087243;28;20463;-78
2021/06/06 04:24:06;;;;;;;1.73;1.60;;;19.30;1.00;;;;;;5090144;28;20877;-77
2021/06/06 04:26:34;;;;;;;1.70;1.50;;;19.30;1.00;;;;;;5119825;27;20499;-77
2021/06/06 04:29:02;;;;;;;2.57;1.50;;;19.30;31.00;;;;;;5088284;28;20599;-77
2021/06/06 04:31:30;;;;;;;1.87;1.60;;;19.30;99.90;;;;;;5088986;28;20995;-80
2021/06/06 04:34:00;;;;;;;1.57;1.47;;;19.30;99.90;;;;;;5088238;28;20460;-79
2021/06/06 04:36:27;;;;;;;2.00;1.90;;;19.30;1.00;;;;;;5086016;28;20489;-78
2021/06/06 04:38:55;;;;;;;1.33;1.17;;;19.30;1.00;;;;;;5087244;28;20506;-77
2021/06/06 04:41:23;;;;;;;1.93;1.50;;;19.30;1.00;;;;;;5087333;28;20448;-78
2021/06/06 04:43:50;;;;;;;1.90;1.40;;;19.30;1.00;;;;;;5088245;28;20437;-77
2021/06/06 04:46:19;;;;;;;1.50;1.40;;;19.30;1.00;;;;;;5120537;27;20488;-77
2021/06/06 04:48:47;;;;;;;1.37;1.27;;;19.30;99.90;;;;;;5084988;28;20476;-77
2021/06/06 04:51:19;;;;;;;2.20;1.70;;;19.20;99.90;;;;;;5087041;28;20521;-77
2021/06/06 04:53:47;;;;;;;2.50;1.20;;;19.20;99.90;;;;;;5088275;28;20468;-78
2021/06/06 04:56:17;;;;;;;2.00;1.40;;;19.30;99.90;;;;;;5085258;28;20476;-77
2021/06/06 04:58:45;;;;;;;1.50;1.40;;;19.30;99.90;;;;;;5085461;28;20453;-77
2021/06/06 05:01:14;;;;;;;1.70;1.30;;;19.20;99.90;;;;;;5085960;28;20457;-77
2021/06/06 05:03:42;;;;;;;1.47;1.37;;;19.20;99.90;;;;;;5120229;27;20515;-77
2021/06/06 05:06:10;;;;;;;1.97;1.20;;;19.20;99.90;;;;;;5083722;28;20472;-76
2021/06/06 05:08:40;;;;;;;1.40;1.30;;;19.20;99.90;;;;;;5084750;28;21044;-78
2021/06/06 05:11:08;;;;;;;1.70;1.07;;;19.20;99.90;;;;;;5087145;28;20968;-75
2021/06/06 05:13:36;;;;;;;1.30;1.20;;;19.20;99.90;;;;;;5085911;28;20450;-78
2021/06/06 05:16:04;;;;;;;1.13;0.87;;;19.20;1.00;;;;;;5087160;28;20472;-77
2021/06/06 05:18:32;;;;;;;0.70;0.70;;;19.20;99.90;;;;;;5084466;28;20456;-79
2021/06/06 05:21:00;;;;;;;1.43;0.90;;;19.20;1.00;;;;;;5088058;28;20471;-78
2021/06/06 05:23:30;;;;;;;2.10;2.00;;;19.20;1.00;;;;;;5086357;28;20487;-78
2021/06/06 05:25:59;;;;;;;3.13;0.80;;;19.20;91.80;;;;;;5088636;28;20461;-77
2021/06/06 05:28:29;;;;;;;1.60;1.00;;;19.20;94.60;;;;;;5086484;28;20466;-78
2021/06/06 05:30:58;;;;;;;1.30;1.20;;;19.20;99.90;;;;;;5088674;28;20473;-78
2021/06/06 05:33:26;;;;;;;1.30;1.10;;;19.20;99.90;;;;;;5093453;28;20533;-76
2021/06/06 05:35:54;;;;;;;1.80;1.17;;;19.20;99.90;;;;;;5088480;28;20464;-76
2021/06/06 05:38:25;;;;;;;1.90;1.20;;;19.20;99.90;;;;;;5085075;28;20437;-75
2021/06/06 05:40:53;;;;;;;1.17;1.07;;;19.20;1.00;;;;;;5087832;28;20540;-78
2021/06/06 05:43:23;;;;;;;1.73;1.60;;;19.20;1.00;;;;;;5087956;28;20454;-77
2021/06/06 05:45:51;;;;;;;2.53;1.73;;;19.20;99.90;;;;;;5091767;28;20465;-75
2021/06/06 05:48:20;;;;;;;3.13;1.83;;;19.10;99.90;;;;;;5087851;28;21085;-77
2021/06/06 05:50:51;;;;;;;2.73;2.20;;;19.10;1.00;;;;;;5091160;28;20483;-77
2021/06/06 05:53:18;;;;;;;5.73;2.23;;;19.00;1.00;;;;;;5082569;28;20871;-77
2021/06/06 05:55:48;;;;;;;2.83;2.00;;;19.10;99.90;;;;;;5087902;28;21000;-75
2021/06/06 05:58:16;;;;;;;4.43;2.33;;;19.10;99.90;;;;;;5108955;28;20460;-78
2021/06/06 06:00:47;;;;;;;5.40;3.20;;;19.10;99.90;;;;;;5085292;28;20870;-78
2021/06/06 06:03:16;;;;;;;4.50;2.47;;;19.00;99.90;;;;;;5083176;28;20453;-76
2021/06/06 06:05:44;;;;;;;3.83;3.10;;;19.10;1.00;;;;;;5085162;28;20928;-76
2021/06/06 06:08:15;;;;;;;7.23;2.87;;;19.10;1.00;;;;;;5084449;28;20460;-77
2021/06/06 06:10:43;;;;;;;4.13;3.10;;;19.00;1.00;;;;;;5087215;28;20992;-78
2021/06/06 06:13:12;;;;;;;4.47;2.70;;;19.10;93.50;;;;;;5081198;28;20449;-77
2021/06/06 06:15:39;;;;;;;5.30;3.80;;;19.00;99.90;;;;;;5093995;28;21342;-76
2021/06/06 06:18:09;;;;;;;6.70;3.67;;;19.00;99.90;;;;;;5085205;28;20456;-76
2021/06/06 06:20:37;;;;;;;4.77;3.90;;;19.00;1.00;;;;;;5086897;28;20442;-78
2021/06/06 06:23:05;;;;;;;6.80;4.00;;;19.00;99.90;;;;;;5082843;28;20457;-79
2021/06/06 06:25:33;;;;;;;6.63;3.80;;;18.90;99.90;;;;;;5088121;28;20464;-76
2021/06/06 06:28:01;;;;;;;5.33;4.00;;;19.00;1.00;;;;;;5087231;28;20448;-79
2021/06/06 06:30:32;;;;;;;7.17;4.60;;;18.90;99.90;;;;;;5084127;28;20814;-78
2021/06/06 06:33:00;;;;;;;7.63;4.13;;;18.90;99.90;;;;;;5083364;28;20468;-78
2021/06/06 06:35:29;;;;;;;9.60;5.63;;;19.00;99.90;;;;;;5092482;28;20462;-78
2021/06/06 06:37:57;;;;;;;5.60;4.87;;;18.90;99.90;;;;;;5091276;28;20526;-78
2021/06/06 06:40:27;;;;;;;5.37;4.53;;;18.90;99.90;;;;;;5088666;28;20507;-79
2021/06/06 06:42:55;;;;;;;6.70;4.17;;;18.90;99.90;;;;;;5093982;28;20464;-78
2021/06/06 06:45:26;;;;;;;6.43;4.67;;;18.90;1.00;;;;;;5092079;28;20885;-78
2021/06/06 06:47:58;;;;;;;6.57;3.93;;;18.90;99.90;;;;;;5089905;28;20494;-77
2021/06/06 06:50:29;;;;;;;8.60;4.90;;;18.90;99.90;;;;;;5084660;28;20564;-79
2021/06/06 06:52:57;;;;;;;4.80;4.23;;;19.00;99.90;;;;;;5089738;28;20460;-77
2021/06/06 06:55:25;;;;;;;4.40;3.47;;;19.00;99.90;;;;;;5091900;28;20887;-78
2021/06/06 06:57:54;;;;;;;3.20;2.90;;;19.00;99.90;;;;;;5091234;28;20467;-76
2021/06/06 07:00:25;;;;;;;4.03;3.30;;;19.00;29.00;;;;;;5092110;28;20440;-77
2021/06/06 07:03:02;;;;;;;3.63;3.30;;;19.00;99.90;;;;;;5090704;28;20452;-77
2021/06/06 07:05:32;;;;;;;2.90;2.67;;;19.00;99.90;;;;;;5090414;28;20481;-77
2021/06/06 07:07:59;;;;;;;3.10;2.70;;;19.00;99.90;;;;;;5089167;28;20960;-77
2021/06/06 07:10:31;;;;;;;4.73;4.03;;;19.00;99.90;;;;;;5091620;28;20938;-78
2021/06/06 07:12:59;;;;;;;5.07;3.40;;;19.00;99.90;;;;;;5090743;28;21171;-79
2021/06/06 07:15:27;;;;;;;3.83;3.33;;;19.00;99.90;;;;;;5082025;28;20480;-78
2021/06/06 07:17:55;;;;;;;3.93;3.50;;;19.00;99.90;;;;;;5120825;27;20509;-78
2021/06/06 07:20:26;;;;;;;4.13;3.77;;;19.10;1.00;;;;;;5089277;28;20504;-78
2021/06/06 07:22:55;;;;;;;4.43;4.00;;;19.10;99.90;;;;;;5086639;28;21299;-76
2021/06/06 07:25:24;;;;;;;6.23;4.30;;;19.10;99.90;;;;;;5087515;28;20483;-79
2021/06/06 07:27:54;;;;;;;5.93;5.33;;;19.00;6.90;;;;;;5089133;28;20502;-77
2021/06/06 07:30:27;;;;;;;6.07;4.40;;;19.10;26.70;;;;;;5090164;28;20574;-77
2021/06/06 07:32:56;;;;;;;5.17;4.30;;;19.10;99.90;;;;;;5083497;28;20498;-77
2021/06/06 07:35:26;;;;;;;4.87;4.37;;;19.10;99.90;;;;;;5086010;28;20506;-77
2021/06/06 07:37:55;;;;;;;5.60;4.50;;;19.10;1.00;;;;;;5085763;28;20777;-79
2021/06/06 07:40:28;;;;;;;5.10;4.60;;;19.10;1.00;;;;;;5087476;28;20445;-76
2021/06/06 07:42:56;;;;;;;4.73;4.07;;;19.10;99.90;;;;;;5089994;28;20858;-80
2021/06/06 07:45:24;;;;;;;8.53;4.80;;;19.10;99.90;;;;;;5089050;28;21110;-75
2021/06/06 07:47:52;;;;;;;7.33;4.33;;;19.20;65.50;;;;;;5085177;28;20770;-79
2021/06/06 07:50:24;;;;;;;4.80;3.97;;;19.20;99.90;;;;;;5090269;28;20531;-76
2021/06/06 07:52:52;;;;;;;4.37;3.47;;;19.20;97.30;;;;;;5090277;28;21129;-80
2021/06/06 07:55:25;;;;;;;4.80;4.00;;;19.10;99.90;;;;;;5088420;28;20523;-80
2021/06/06 07:57:53;;;;;;;4.90;4.43;;;19.20;99.90;;;;;;5086465;28;20818;-78
2021/06/06 08:00:25;;;;;;;4.60;4.17;;;19.10;1.00;;;;;;5088460;28;20452;-81
2021/06/06 08:02:55;;;;;;;3.87;3.37;;;19.10;99.90;;;;;;5080496;28;20462;-78
2021/06/06 08:05:23;;;;;;;5.80;3.37;;;19.10;99.90;;;;;;5087360;28;20530;-77
2021/06/06 08:07:51;;;;;;;6.00;4.47;;;19.10;99.90;;;;;;5087658;28;20518;-78
2021/06/06 08:10:23;;;;;;;6.33;4.90;;;19.00;99.90;;;;;;5084922;28;20994;-79
2021/06/06 08:12:50;;;;;;;7.90;4.17;;;19.00;1.00;;;;;;5082729;28;20456;-76
2021/06/06 08:15:20;;;;;;;4.80;3.90;;;19.00;99.90;;;;;;5087074;28;20479;-78
2021/06/06 08:17:48;;;;;;;4.53;2.97;;;19.10;1.00;;;;;;5087346;28;20458;-76
2021/06/06 08:20:21;;;;;;;5.57;3.60;;;19.00;1.00;;;;;;5090895;28;20553;-77
2021/06/06 08:22:48;;;;;;;4.27;3.60;;;19.00;99.90;;;;;;5088420;28;20474;-76
2021/06/06 08:25:17;;;;;;;6.70;4.17;;;18.80;36.90;;;;;;5088537;28;20465;-78
2021/06/06 08:27:48;;;;;;;7.67;4.43;;;18.80;37.30;;;;;;5090872;28;20455;-74
2021/06/06 08:30:20;;;;;;;4.97;3.67;;;18.80;99.90;;;;;;5089182;28;20468;-75
2021/06/06 08:32:48;;;;;;;4.80;3.87;;;18.80;99.90;;;;;;5087616;28;21404;-75
2021/06/06 08:35:17;;;;;;;5.20;4.20;;;18.90;99.90;;;;;;5085945;28;20473;-76
2021/06/06 08:37:45;;;;;;;5.90;3.73;;;19.00;1.00;;;;;;5079350;28;20468;-74
2021/06/06 08:40:22;;;;;;;5.30;4.30;;;19.00;99.90;;;;;;5086975;28;20482;-77
2021/06/06 08:42:51;;;;;;;8.23;4.43;;;19.10;37.70;;;;;;5083367;28;20460;-78
2021/06/06 08:45:30;;;;;;;5.93;4.27;;;19.10;1.00;;;;;;5073569;28;20521;-77
2021/06/06 08:47:59;;;;;;;6.57;4.47;;;19.20;1.00;;;;;;5088708;28;20451;-78
2021/06/06 08:50:32;;;;;;;5.27;4.10;;;19.10;1.00;;;;;;5081901;28;20476;-74
2021/06/06 08:53:09;;;;;;;8.10;5.93;;;19.10;99.90;;;;;;5087312;28;20966;-74
2021/06/06 08:55:46;;;;;;;5.67;4.37;;;19.10;1.00;;;;;;5087659;28;20511;-76
2021/06/06 08:58:24;;;;;;;5.70;3.40;;;19.20;99.90;;;;;;5085613;28;20457;-76
2021/06/06 09:00:59;;;;;;;6.13;3.70;;;19.20;1.00;;;;;;5086324;28;20988;-80
2021/06/06 09:03:29;;;;;;;4.57;3.40;;;19.20;1.00;;;;;;5087581;28;20443;-78
2021/06/06 09:06:04;;;;;;;4.50;3.50;;;19.20;1.00;;;;;;5087270;28;20470;-79
2021/06/06 09:08:35;;;;;;;6.63;4.83;;;19.20;1.00;;;;;;5085155;28;20460;-76
2021/06/06 09:11:05;;;;;;;6.27;4.13;;;19.10;99.90;;;;;;5086717;28;20484;-79
2021/06/06 09:13:35;;;;;;;6.27;4.50;;;19.10;1.00;;;;;;5080522;28;20571;-77
2021/06/06 09:16:19;;;;;;;4.83;3.50;;;19.10;99.90;;;;;;5076278;28;20840;-76
2021/06/06 09:18:58;;;;;;;5.80;4.03;;;19.10;99.90;;;;;;5086825;28;20963;-77
2021/06/06 09:21:26;;;;;;;5.60;4.43;;;19.10;1.00;;;;;;5087559;28;20437;-76
2021/06/06 09:24:08;;;;;;;6.27;4.67;;;19.20;99.90;;;;;;5088459;28;20449;-75
2021/06/06 09:26:36;;;;;;;7.73;4.63;;;19.10;99.90;;;;;;5072791;28;20477;-75
2021/06/06 09:29:10;;;;;;;7.60;5.87;;;19.10;99.90;;;;;;5079174;28;20466;-74
2021/06/06 09:31:38;;;;;;;6.77;4.83;;;19.20;99.90;;;;;;5081601;28;20538;-75
2021/06/06 09:34:09;;;;;;;8.83;6.30;;;19.20;1.00;;;;;;5081029;28;20518;-73
2021/06/06 09:36:39;;;;;;;11.70;7.10;;;19.20;99.90;;;;;;5074483;28;20545;-75
2021/06/06 09:39:18;;;;;;;10.23;5.67;;;19.20;99.90;;;;;;5082393;28;20456;-73
2021/06/06 09:41:48;;;;;;;9.47;6.93;;;19.20;57.50;;;;;;5086557;28;20448;-75
2021/06/06 09:44:25;;;;;;;10.87;8.13;;;19.20;99.90;;;;;;5082818;28;20785;-74
2021/06/06 09:46:55;;;;;;;12.00;7.10;;;19.30;1.00;;;;;;5084184;28;20464;-75
2021/06/06 09:49:30;;;;;;;10.67;6.20;;;19.20;95.80;;;;;;5086333;28;20453;-73
2021/06/06 09:52:11;;;;;;;8.57;6.17;;;19.20;1.00;;;;;;5078387;28;20472;-76
2021/06/06 09:54:41;;;;;;;7.40;5.33;;;19.20;99.90;;;;;;5084835;28;20988;-75
2021/06/06 09:57:21;;;;;;;8.40;6.30;;;19.20;99.90;;;;;;5086537;28;20511;-73
2021/06/06 09:59:50;;;;;;;6.23;5.00;;;19.20;1.00;;;;;;5086614;28;20452;-75
2021/06/06 10:02:28;;;;;;;6.30;4.90;;;19.20;54.90;;;;;;5087778;28;20509;-73
2021/06/06 10:05:04;;;;;;;5.47;4.10;;;19.20;99.90;;;;;;5076993;28;20485;-75
2021/06/06 10:07:36;;;;;;;6.77;4.07;;;19.20;1.00;;;;;;5086758;28;20441;-75
2021/06/06 10:10:15;;;;;;;5.00;4.03;;;19.20;99.90;;;;;;5093556;28;20540;-74
2021/06/06 10:12:47;;;;;;;5.00;4.23;;;19.20;99.90;;;;;;5095375;28;20442;-75
2021/06/06 10:15:20;;;;;;;5.00;4.40;;;19.20;94.90;;;;;;5082115;28;20463;-75
2021/06/06 10:17:52;;;;;;;5.60;4.70;;;19.20;99.90;;;;;;5090417;28;20453;-76
2021/06/06 10:20:24;;;;;;;6.23;5.17;;;19.20;1.00;;;;;;5104496;28;21179;-75
2021/06/06 10:22:54;;;;;;;5.90;4.70;;;19.20;99.90;;;;;;5084150;28;20433;-77
2021/06/06 10:25:25;;;;;;;6.40;5.30;;;19.10;1.00;;;;;;5085544;28;20466;-78
2021/06/06 10:27:58;;;;;;;6.90;5.00;;;19.10;6.40;;;;;;5089006;28;20506;-75
2021/06/06 10:30:31;;;;;;;6.40;5.60;;;19.20;1.00;;;;;;5084181;28;20441;-78
2021/06/06 10:33:10;;;;;;;6.80;5.50;;;19.10;99.90;;;;;;5094267;28;20466;-77
2021/06/06 10:35:38;;;;;;;10.37;7.00;;;19.20;99.90;;;;;;5084048;28;20521;-77
2021/06/06 10:38:05;;;;;;;9.60;7.20;;;19.10;1.00;;;;;;5092619;28;20441;-80
2021/06/06 10:40:38;;;;;;;9.60;8.00;;;19.10;99.90;;;;;;5094704;28;20445;-74
2021/06/06 10:43:11;;;;;;;8.30;7.43;;;19.10;1.00;;;;;;5093275;28;20441;-78
2021/06/06 10:45:46;;;;;;;10.77;8.03;;;19.10;1.00;;;;;;5093207;28;20466;-75
2021/06/06 10:48:22;;;;;;;13.30;9.33;;;19.20;99.90;;;;;;5093158;28;20445;-76
2021/06/06 10:50:53;;;;;;;10.43;9.17;;;19.20;99.90;;;;;;5087393;28;22862;-78
2021/06/06 10:53:23;;;;;;;10.30;7.93;;;19.20;99.90;;;;;;5093382;28;20905;-76
2021/06/06 10:56:02;;;;;;;9.07;7.20;;;19.30;1.00;;;;;;5094213;28;20525;-77
2021/06/06 10:58:38;;;;;;;11.33;9.40;;;19.30;99.90;;;;;;5091357;28;20527;-78
2021/06/06 11:01:29;;;;;;;11.37;9.23;;;19.40;1.00;;;;;;5081708;28;20533;-78
2021/06/06 11:04:10;;;;;;;11.13;8.90;;;19.20;99.90;;;;;;5098281;28;20964;-76
2021/06/06 11:06:38;;;;;;;13.37;9.17;;;19.20;99.90;;;;;;5090973;28;20468;-78
2021/06/06 11:09:19;;;;;;;14.67;11.30;;;19.30;99.90;;;;;;5091298;28;20441;-78
2021/06/06 11:11:56;;;;;;;17.00;11.73;;;19.30;99.90;;;;;;5083592;28;20527;-75
2021/06/06 11:14:36;;;;;;;13.90;11.60;;;19.30;99.90;;;;;;5080477;28;20453;-77
2021/06/06 11:17:12;;;;;;;13.33;11.07;;;19.30;99.90;;;;;;5092673;28;21198;-75
2021/06/06 11:19:40;;;;;;;15.53;10.97;;;19.30;99.90;;;;;;5091326;28;20445;-77
2021/06/06 11:22:32;;;;;;;16.27;12.67;;;19.30;99.90;;;;;;5097560;28;20437;-75
2021/06/06 11:25:01;;;;;;;17.60;11.87;;;19.30;99.90;;;;;;5090838;28;21004;-77
2021/06/06 11:27:36;;;;;;;15.67;11.50;;;19.20;37.30;;;;;;5092779;28;20450;-76
2021/06/06 11:30:11;;;;;;;13.67;11.20;;;19.20;99.90;;;;;;5080740;28;20997;-79
2021/06/06 11:32:58;;;;;;;15.23;11.37;;;19.30;1.00;;;;;;5077925;28;20597;-77
2021/06/06 11:35:42;;;;;;;15.37;11.43;;;19.40;99.90;;;;;;5081242;28;20484;-77
2021/06/06 11:38:40;;;;;;;23.50;13.47;;;19.40;1.00;;;;;;5086144;28;20811;-79
2021/06/06 11:41:20;;;;;;;19.63;15.07;;;19.40;99.90;;;;;;5072758;28;20434;-75
2021/06/06 11:43:53;;;;;;;17.53;12.80;;;19.40;1.00;;;;;;5073067;28;20451;-80
2021/06/06 11:46:28;;;;;;;22.30;15.10;;;19.40;99.90;;;;;;5069518;28;20458;-77
2021/06/06 11:49:05;;;;;;;21.60;14.17;;;19.40;99.90;;;;;;5070958;28;21126;-78
2021/06/06 11:51:40;;;;;;;20.97;14.90;;;19.40;1.00;;;;;;5073174;28;20477;-79
2021/06/06 11:54:21;;;;;;;24.03;15.37;;;19.40;99.90;;;;;;5088536;28;20441;-78
2021/06/06 11:56:50;;;;;;;25.93;16.47;;;19.40;99.90;;;;;;5092109;28;20847;-78
2021/06/06 11:59:23;;;;;;;24.93;17.17;;;19.40;99.90;;;;;;5092445;28;20445;-80
2021/06/06 12:01:54;;;;;;;27.03;17.80;;;19.40;1.00;;;;;;5093134;28;20429;-78
2021/06/06 12:04:29;;;;;;;28.80;17.07;;;19.30;1.00;;;;;;5072844;28;20435;-80
2021/06/06 12:06:58;;;;;;;27.03;18.33;;;19.50;99.90;;;;;;5072751;28;20445;-78
2021/06/06 12:09:34;;;;;;;30.80;19.63;;;19.30;1.00;;;;;;5071132;28;20435;-78
2021/06/06 12:12:11;;;;;;;30.80;18.87;;;19.30;1.00;;;;;;5072869;28;20478;-79
2021/06/06 12:14:40;;;;;;;28.80;18.13;;;19.10;99.90;;;;;;5086936;28;20568;-78
2021/06/06 12:17:20;;;;;;;27.43;17.93;;;19.10;47.00;;;;;;5093111;28;20507;-77
2021/06/06 12:19:52;;;;;;;27.37;17.90;;;19.10;1.00;;;;;;5091899;28;20460;-81
2021/06/06 12:22:28;;;;;;;26.67;18.20;;;19.10;99.90;;;;;;5092850;28;20442;-78
2021/06/06 12:25:07;;;;;;;27.10;17.47;;;19.20;99.90;;;;;;5092897;28;20486;-77
2021/06/06 12:27:43;;;;;;;24.00;17.20;;;19.20;99.90;;;;;;5089613;28;20511;-78
2021/06/06 12:30:21;;;;;;;27.43;19.90;;;19.20;1.00;;;;;;5081834;28;20459;-78
2021/06/06 12:32:52;;;;;;;28.70;20.07;;;19.10;1.00;;;;;;5092466;28;21117;-78
2021/06/06 12:35:25;;;;;;;28.80;19.23;;;19.20;99.90;;;;;;5091984;28;20519;-79
2021/06/06 12:37:57;;;;;;;25.47;18.40;;;19.20;99.90;;;;;;5091725;28;21022;-76
2021/06/06 12:40:28;;;;;;;28.93;17.60;;;19.20;56.40;;;;;;5125522;27;20453;-78
2021/06/06 12:42:58;;;;;;;26.93;17.40;;;19.20;1.00;;;;;;5092164;28;20450;-78
2021/06/06 12:45:28;;;;;;;24.40;17.50;;;19.20;89.00;;;;;;5088208;28;20462;-78
2021/06/06 12:48:09;;;;;;;24.70;17.27;;;19.30;1.00;;;;;;5091808;28;20483;-78
2021/06/06 12:50:41;;;;;;;26.77;17.43;;;19.40;1.00;;;;;;5123424;27;20449;-79
2021/06/06 12:53:22;;;;;;;26.70;17.10;;;19.40;1.00;;;;;;5092494;28;20988;-78
2021/06/06 12:55:51;;;;;;;24.60;16.43;;;19.40;99.90;;;;;;5090986;28;20474;-80
2021/06/06 12:58:30;;;;;;;26.50;17.07;;;19.30;99.90;;;;;;5091519;28;20522;-79
2021/06/06 13:01:07;;;;;;;23.70;17.20;;;19.40;1.00;;;;;;5092226;28;20434;-78
2021/06/06 13:03:37;;;;;;;26.40;17.17;;;19.40;1.00;;;;;;5091927;28;20436;-79
2021/06/06 13:06:17;;;;;;;23.57;17.20;;;19.40;1.00;;;;;;5092090;28;20453;-78
2021/06/06 13:08:46;;;;;;;27.87;18.70;;;19.30;99.90;;;;;;5076413;28;20450;-79